Time;durP1;ratioP1;P1;durP2;ratioP2;P2;SDS_P1;SDS_P2;PMS_P1;PMS_P2;Temp;Humidity;BMP_temperature;BMP_pressure;BME280_temperature;BME280_humidity;BME280_pressure;Samples;Min_cycle;Max_cycle;Signal;HPM_P1;HPM_P2
2021/03/16 00:02:29;;;;;;;8.90;2.05;;;7.40;77.50;;;;;;5025165;23;20057;-94
2021/03/16 00:04:55;;;;;;;11.20;2.67;;;7.40;77.50;;;;;;4977936;28;20034;-94
2021/03/16 00:07:21;;;;;;;9.10;2.17;;;7.40;77.50;;;;;;4978644;28;20113;-94
2021/03/16 00:09:46;;;;;;;9.38;1.90;;;7.40;77.60;;;;;;4981111;28;20027;-93
2021/03/16 00:12:12;;;;;;;9.02;1.80;;;7.40;77.60;;;;;;4967420;29;20016;-93
2021/03/16 00:14:37;;;;;;;8.63;1.80;;;7.40;78.30;;;;;;4968394;28;20030;-95
2021/03/16 00:17:04;;;;;;;9.60;1.88;;;7.40;77.60;;;;;;4966117;28;20028;-94
2021/03/16 00:19:29;;;;;;;8.25;1.92;;;7.40;77.60;;;;;;4962166;29;20033;-95
2021/03/16 00:21:55;;;;;;;10.30;1.90;;;7.40;77.70;;;;;;4959641;28;20471;-96
2021/03/16 00:24:20;;;;;;;9.38;1.95;;;7.40;77.70;;;;;;4958134;29;20015;-94
2021/03/16 00:26:46;;;;;;;11.05;2.00;;;7.40;77.70;;;;;;4959430;29;20138;-94
2021/03/16 00:29:12;;;;;;;11.25;2.30;;;7.40;77.70;;;;;;4957490;29;20015;-91
2021/03/16 00:31:39;;;;;;;9.48;1.95;;;7.30;77.80;;;;;;4957626;28;20038;-94
2021/03/16 00:34:04;;;;;;;7.57;1.73;;;7.30;77.70;;;;;;4956686;28;20019;-94
2021/03/16 00:36:30;;;;;;;9.88;2.20;;;7.30;77.80;;;;;;4956876;29;20034;-94
2021/03/16 00:38:56;;;;;;;12.32;2.22;;;7.30;77.80;;;;;;4951713;29;20545;-96
2021/03/16 00:41:21;;;;;;;10.02;1.92;;;7.30;77.80;;;;;;4938569;29;20024;-94
2021/03/16 00:43:48;;;;;;;6.82;1.92;;;7.30;77.70;;;;;;4937883;29;20031;-95
2021/03/16 00:46:14;;;;;;;7.55;1.80;;;7.40;77.90;;;;;;4955846;29;20019;-95
2021/03/16 00:48:39;;;;;;;10.23;1.90;;;7.40;77.80;;;;;;4958237;29;20589;-95
2021/03/16 00:51:05;;;;;;;8.40;1.77;;;7.40;77.80;;;;;;4957134;28;20162;-95
2021/03/16 00:53:31;;;;;;;10.45;1.85;;;7.30;77.80;;;;;;4956562;29;20059;-94
2021/03/16 00:55:56;;;;;;;11.30;2.38;;;7.40;77.80;;;;;;4956903;29;20043;-95
2021/03/16 00:58:29;;;;;;;10.25;2.30;;;7.30;77.70;;;;;;4957492;29;20027;-94
2021/03/16 01:06:07;;;;;;;10.55;1.88;;;7.30;77.50;;;;;;5068901;23;20075;-96
2021/03/16 01:08:33;;;;;;;8.82;2.00;;;7.40;77.40;;;;;;4998602;28;20031;-95
2021/03/16 01:10:58;;;;;;;4.78;1.50;;;7.20;77.30;;;;;;4996278;28;20109;-95
2021/03/16 01:13:24;;;;;;;8.38;2.13;;;7.20;77.30;;;;;;4996497;28;20061;-95
2021/03/16 01:15:50;;;;;;;6.80;1.80;;;7.20;77.00;;;;;;4994999;28;20091;-95
2021/03/16 01:18:16;;;;;;;11.50;2.08;;;7.20;76.80;;;;;;4997922;28;20077;-96
2021/03/16 01:20:47;;;;;;;7.13;1.80;;;7.10;76.60;;;;;;4999989;28;20018;-93
2021/03/16 01:23:13;;;;;;;8.25;1.55;;;7.20;76.60;;;;;;4979007;28;20050;-95
2021/03/16 01:25:39;;;;;;;10.25;1.67;;;7.10;76.40;;;;;;4995622;28;20080;-94
2021/03/16 01:28:06;;;;;;;5.30;1.38;;;7.20;76.50;;;;;;4995596;28;20194;-94
2021/03/16 01:30:32;;;;;;;7.97;1.60;;;7.20;76.40;;;;;;4995227;28;20053;-92
2021/03/16 01:32:58;;;;;;;10.60;1.77;;;7.30;76.30;;;;;;4993006;28;20058;-94
2021/03/16 01:35:23;;;;;;;5.53;1.30;;;7.30;76.20;;;;;;4995708;28;20057;-96
2021/03/16 01:37:58;;;;;;;6.35;1.45;;;7.30;76.20;;;;;;4996252;28;20025;-96
2021/03/16 01:40:38;;;;;;;6.00;1.48;;;7.40;76.20;;;;;;4996252;28;20050;-95
2021/03/16 01:43:07;;;;;;;7.88;1.70;;;7.40;76.00;;;;;;4996101;28;20026;-96
2021/03/16 01:45:32;;;;;;;4.97;1.50;;;7.40;76.00;;;;;;5000018;28;20030;-96
2021/03/16 01:48:03;;;;;;;6.22;1.45;;;7.40;76.00;;;;;;5015076;28;20046;-96
2021/03/16 01:50:29;;;;;;;6.68;1.50;;;7.40;76.00;;;;;;5010306;28;20030;-96
2021/03/16 01:52:56;;;;;;;4.68;1.25;;;7.40;76.00;;;;;;4997167;28;20034;-96
2021/03/16 01:55:22;;;;;;;6.40;1.70;;;7.40;76.10;;;;;;4975541;28;20046;-96
2021/03/16 02:00:45;;;;;;;7.22;1.50;;;7.40;76.10;;;;;;5638324;23;20058;-96
2021/03/16 02:03:13;;;;;;;7.68;1.60;;;7.50;76.10;;;;;;5142274;23;20049;-96
2021/03/16 02:05:44;;;;;;;7.72;1.63;;;7.50;76.10;;;;;;4966182;29;20015;-96
2021/03/16 02:08:36;;;;;;;8.18;1.52;;;7.40;76.00;;;;;;4976857;29;20011;-96
2021/03/16 02:11:21;;;;;;;5.13;1.17;;;7.40;76.00;;;;;;4975861;28;20519;-96
2021/03/16 02:14:12;;;;;;;6.03;1.50;;;7.40;76.10;;;;;;4976225;28;20023;-96
2021/03/16 02:16:55;;;;;;;8.25;1.50;;;7.40;76.10;;;;;;4964426;28;20022;-94
2021/03/16 02:19:42;;;;;;;6.50;1.48;;;7.30;76.00;;;;;;4978630;28;20041;-94
2021/03/16 02:22:08;;;;;;;5.07;1.30;;;7.30;76.10;;;;;;4977734;28;20026;-96
2021/03/16 02:24:55;;;;;;;6.75;1.58;;;7.30;76.00;;;;;;4980565;28;20082;-96
2021/03/16 02:27:25;;;;;;;7.82;1.73;;;7.30;76.00;;;;;;4973841;28;20069;-95
2021/03/16 02:29:59;;;;;;;6.68;1.33;;;7.30;76.00;;;;;;4972825;28;20122;-93
2021/03/16 02:32:27;;;;;;;6.18;1.40;;;7.30;75.90;;;;;;4977855;28;20023;-95
2021/03/16 02:34:59;;;;;;;7.07;1.45;;;7.30;75.80;;;;;;4977271;28;20058;-96
2021/03/16 02:37:27;;;;;;;5.47;1.42;;;7.30;75.80;;;;;;4975168;28;20022;-95
2021/03/16 02:42:39;;;;;;;10.85;2.05;;;7.30;75.80;;;;;;5099588;23;20035;-96
2021/03/16 02:45:07;;;;;;;7.85;1.80;;;7.40;75.80;;;;;;4988652;28;20069;-96
2021/03/16 02:55:41;;;;;;;6.03;1.40;;;7.30;75.70;;;;;;4958252;28;20044;-96
2021/03/16 02:58:07;;;;;;;5.43;1.48;;;7.30;75.70;;;;;;4973579;28;20026;-93
2021/03/16 03:00:33;;;;;;;4.10;1.15;;;7.40;75.70;;;;;;4974468;28;20027;-95
2021/03/16 03:03:00;;;;;;;5.80;1.20;;;7.40;75.60;;;;;;4970606;28;20021;-96
2021/03/16 03:05:27;;;;;;;7.90;1.60;;;7.40;75.60;;;;;;4975903;28;20043;-96
2021/03/16 03:07:54;;;;;;;9.00;1.60;;;7.40;75.60;;;;;;4982327;28;20043;-96
2021/03/16 03:10:21;;;;;;;5.75;1.40;;;7.40;75.60;;;;;;4977173;28;20034;-96
2021/03/16 03:12:46;;;;;;;5.63;1.40;;;7.40;75.70;;;;;;4975400;28;20143;-95
2021/03/16 03:15:34;;;;;;;6.63;1.50;;;7.40;75.70;;;;;;4993479;28;20449;-96
2021/03/16 03:23:33;;;;;;;6.18;1.35;;;7.40;75.80;;;;;;5782988;23;20051;-96
2021/03/16 03:26:13;;;;;;;5.47;1.38;;;7.40;75.70;;;;;;4975304;28;20510;-95
2021/03/16 03:28:39;;;;;;;4.88;1.27;;;7.40;75.70;;;;;;4975897;28;20117;-96
2021/03/16 03:31:06;;;;;;;3.85;1.00;;;7.40;75.70;;;;;;4995012;28;20027;-96
2021/03/16 03:33:33;;;;;;;5.32;1.35;;;7.40;75.70;;;;;;4996733;28;20019;-95
2021/03/16 03:36:02;;;;;;;3.95;1.10;;;7.50;75.70;;;;;;5001628;28;20019;-92
2021/03/16 03:38:30;;;;;;;4.35;1.48;;;7.40;75.60;;;;;;5002983;28;20023;-93
2021/03/16 03:40:57;;;;;;;5.90;1.40;;;7.50;75.70;;;;;;4996822;28;20029;-95
2021/03/16 03:43:24;;;;;;;7.10;1.33;;;7.50;75.60;;;;;;4999502;28;20034;-95
2021/03/16 03:51:00;;;;;;;3.40;1.00;;;7.50;75.70;;;;;;5014919;28;20034;-96
2021/03/16 03:53:28;;;;;;;2.90;1.10;;;7.60;75.80;;;;;;5006342;28;20026;-96
2021/03/16 03:55:55;;;;;;;4.55;1.20;;;7.50;75.70;;;;;;5017655;28;20030;-95
2021/03/16 03:58:21;;;;;;;6.75;1.15;;;7.50;75.70;;;;;;5020736;28;20030;-96
2021/03/16 04:00:48;;;;;;;8.15;1.30;;;7.50;75.70;;;;;;5020018;28;20027;-95
2021/03/16 04:03:14;;;;;;;8.77;1.60;;;7.50;75.60;;;;;;5019525;28;20006;-94
2021/03/16 04:05:41;;;;;;;5.78;1.27;;;7.40;75.50;;;;;;5021164;28;20086;-93
2021/03/16 04:08:09;;;;;;;5.45;1.23;;;7.40;75.60;;;;;;5022321;28;20006;-94
2021/03/16 04:10:36;;;;;;;3.58;1.25;;;7.40;75.60;;;;;;5022175;28;20034;-96
2021/03/16 04:13:05;;;;;;;2.88;1.33;;;7.50;75.60;;;;;;5021061;28;20038;-96
2021/03/16 04:15:32;;;;;;;3.60;0.95;;;7.50;75.50;;;;;;5021936;28;20022;-96
2021/03/16 04:17:58;;;;;;;4.65;1.10;;;7.50;75.50;;;;;;5021363;28;20023;-95
2021/03/16 04:20:24;;;;;;;3.50;1.17;;;7.50;75.60;;;;;;5009177;28;20019;-95
2021/03/16 04:22:50;;;;;;;5.00;1.35;;;7.50;75.60;;;;;;5000509;28;20095;-95
2021/03/16 04:25:16;;;;;;;3.30;1.33;;;7.50;75.60;;;;;;4999619;28;20058;-95
2021/03/16 04:27:42;;;;;;;7.07;1.70;;;7.50;75.60;;;;;;5017337;28;20015;-96
2021/03/16 04:30:08;;;;;;;6.22;1.58;;;7.40;75.60;;;;;;5017786;28;20015;-96
2021/03/16 04:32:34;;;;;;;8.68;1.35;;;7.40;75.70;;;;;;5016988;28;20030;-95
2021/03/16 04:35:01;;;;;;;5.85;1.40;;;7.40;75.80;;;;;;5012494;28;20022;-96
2021/03/16 04:37:26;;;;;;;4.95;1.27;;;7.40;75.90;;;;;;5008037;28;20022;-96
2021/03/16 04:53:42;;;;;;;7.07;1.85;;;7.30;76.40;;;;;;5365481;23;20611;-96
2021/03/16 04:56:58;;;;;;;4.53;1.30;;;7.40;76.50;;;;;;4997509;28;20030;-96
2021/03/16 04:59:35;;;;;;;5.28;1.35;;;7.30;76.50;;;;;;5282370;23;20058;-96
2021/03/16 05:02:01;;;;;;;5.55;1.58;;;7.30;76.60;;;;;;5005015;28;20022;-96
2021/03/16 05:04:27;;;;;;;6.10;1.67;;;7.30;76.60;;;;;;4998767;28;20073;-96
2021/03/16 05:06:52;;;;;;;6.30;1.70;;;7.20;76.70;;;;;;4998715;28;20470;-96
2021/03/16 05:09:18;;;;;;;7.85;1.45;;;7.20;76.70;;;;;;5001992;28;20054;-96
2021/03/16 05:14:40;;;;;;;5.60;1.50;;;7.30;76.80;;;;;;5706914;23;20057;-96
2021/03/16 05:17:05;;;;;;;6.28;1.40;;;7.20;76.80;;;;;;4986216;28;20031;-95
2021/03/16 05:19:31;;;;;;;6.10;1.40;;;7.30;76.80;;;;;;4989320;28;20362;-93
2021/03/16 05:21:57;;;;;;;3.67;1.15;;;7.30;76.90;;;;;;4995376;28;20125;-94
2021/03/16 05:24:22;;;;;;;10.00;1.70;;;7.30;76.90;;;;;;4995689;28;20037;-94
2021/03/16 05:26:48;;;;;;;5.05;1.30;;;7.30;76.80;;;;;;4995974;28;20033;-96
2021/03/16 05:29:14;;;;;;;5.70;1.50;;;7.30;76.90;;;;;;4995543;28;20046;-94
2021/03/16 05:31:40;;;;;;;5.07;1.30;;;7.30;76.90;;;;;;4994973;28;20027;-95
2021/03/16 05:34:05;;;;;;;9.52;1.67;;;7.30;76.90;;;;;;4995371;28;20073;-94
2021/03/16 05:36:31;;;;;;;5.43;1.45;;;7.30;76.90;;;;;;4995267;28;20023;-95
2021/03/16 05:38:56;;;;;;;5.40;1.45;;;7.30;77.00;;;;;;4995689;28;20134;-93
2021/03/16 05:41:23;;;;;;;9.43;1.90;;;7.20;77.00;;;;;;4994693;28;20034;-94
2021/03/16 05:43:49;;;;;;;8.23;1.45;;;7.20;77.20;;;;;;4991091;23;21092;-96
2021/03/16 05:46:15;;;;;;;9.13;2.03;;;7.20;77.30;;;;;;4940420;29;20043;-96
2021/03/16 05:48:46;;;;;;;7.28;1.60;;;7.20;77.40;;;;;;4974509;23;20032;-96
2021/03/16 05:51:13;;;;;;;5.38;1.50;;;7.20;77.50;;;;;;4978401;28;20082;-96
2021/03/16 05:53:39;;;;;;;5.68;1.50;;;7.20;77.40;;;;;;4972191;28;20027;-95
2021/03/16 05:56:05;;;;;;;5.35;1.60;;;7.20;77.40;;;;;;4985518;28;20077;-95
2021/03/16 05:58:32;;;;;;;4.80;1.40;;;7.20;77.50;;;;;;4994997;28;20018;-96
2021/03/16 06:01:34;;;;;;;6.65;1.20;;;7.30;77.50;;;;;;5005532;28;20245;-96
2021/03/16 06:07:04;;;;;;;4.75;1.33;;;7.30;77.40;;;;;;5317202;23;20188;-96
2021/03/16 06:09:30;;;;;;;4.20;1.13;;;7.30;77.30;;;;;;5007731;28;20014;-96
2021/03/16 06:11:55;;;;;;;5.70;1.30;;;7.30;77.30;;;;;;5013885;28;20014;-96
2021/03/16 06:14:33;;;;;;;9.45;1.75;;;7.50;77.40;;;;;;5012222;28;20083;-96
2021/03/16 06:16:59;;;;;;;7.28;1.80;;;7.30;77.30;;;;;;5089877;23;20058;-96
2021/03/16 06:19:30;;;;;;;6.13;1.30;;;7.50;77.50;;;;;;4976806;28;20042;-96
2021/03/16 06:22:06;;;;;;;8.00;1.65;;;7.40;77.40;;;;;;4993749;28;20110;-96
2021/03/16 06:24:37;;;;;;;7.07;1.50;;;7.50;77.40;;;;;;5396325;23;20772;-96
2021/03/16 06:27:03;;;;;;;4.28;1.45;;;7.50;77.30;;;;;;4971600;28;20039;-96
2021/03/16 06:29:40;;;;;;;5.18;1.50;;;7.50;77.30;;;;;;4984620;28;20055;-96
2021/03/16 06:32:15;;;;;;;6.68;1.50;;;7.50;77.40;;;;;;5203118;23;20087;-96
2021/03/16 06:34:42;;;;;;;5.45;1.40;;;7.60;77.30;;;;;;4982170;28;20247;-96
2021/03/16 06:37:08;;;;;;;9.15;1.70;;;7.60;77.30;;;;;;4978091;28;20045;-96
2021/03/16 06:39:34;;;;;;;7.03;1.85;;;7.60;77.30;;;;;;4954370;28;20041;-96
2021/03/16 06:44:35;;;;;;;5.75;1.42;;;7.70;77.40;;;;;;5097084;23;20093;-96
2021/03/16 06:47:02;;;;;;;7.43;1.70;;;7.60;77.30;;;;;;4963187;28;20031;-90
2021/03/16 06:49:32;;;;;;;5.90;1.90;;;7.60;77.50;;;;;;4962169;28;20045;-94
2021/03/16 06:51:57;;;;;;;4.90;1.45;;;7.50;77.60;;;;;;4957424;28;20034;-95
2021/03/16 06:54:25;;;;;;;5.55;1.48;;;7.60;77.70;;;;;;4955804;28;20041;-90
2021/03/16 06:56:59;;;;;;;4.28;1.30;;;7.50;77.70;;;;;;4988022;28;20046;-89
2021/03/16 06:59:27;;;;;;;3.65;1.30;;;7.60;77.90;;;;;;4963891;28;20030;-88
2021/03/16 07:01:53;;;;;;;7.00;1.58;;;7.60;77.90;;;;;;4966452;28;20959;-88
2021/03/16 07:04:21;;;;;;;4.90;1.80;;;7.60;77.90;;;;;;4982335;28;20023;-92
2021/03/16 07:06:47;;;;;;;4.25;1.45;;;7.60;77.90;;;;;;4956963;28;20073;-92
2021/03/16 07:09:15;;;;;;;6.38;1.48;;;7.60;78.00;;;;;;4961795;28;20046;-91
2021/03/16 07:11:47;;;;;;;6.28;1.48;;;7.60;78.10;;;;;;4965517;28;20031;-92
2021/03/16 07:14:14;;;;;;;5.85;1.50;;;7.60;78.10;;;;;;4968099;28;20035;-90
2021/03/16 07:16:41;;;;;;;2.97;1.10;;;7.60;78.10;;;;;;4947334;29;20055;-91
2021/03/16 07:19:07;;;;;;;4.22;1.25;;;7.70;78.20;;;;;;4967062;28;20046;-93
2021/03/16 07:21:38;;;;;;;4.55;0.98;;;7.90;78.00;;;;;;4973599;28;20444;-90
2021/03/16 07:24:09;;;;;;;6.18;1.30;;;8.00;77.80;;;;;;4969016;28;20027;-91
2021/03/16 07:26:36;;;;;;;5.03;1.38;;;8.20;77.40;;;;;;4958046;28;20673;-90
2021/03/16 07:29:08;;;;;;;8.43;1.80;;;8.30;77.20;;;;;;4941794;28;20479;-94
2021/03/16 07:31:35;;;;;;;6.50;1.50;;;8.40;77.00;;;;;;4965229;28;20030;-93
2021/03/16 07:34:09;;;;;;;6.15;1.98;;;8.40;76.90;;;;;;4980831;28;20031;-94
2021/03/16 07:36:37;;;;;;;8.38;2.15;;;8.40;76.80;;;;;;4978462;28;20023;-96
2021/03/16 07:39:06;;;;;;;5.28;1.58;;;8.30;76.90;;;;;;4963778;28;20082;-93
2021/03/16 07:41:33;;;;;;;7.90;2.00;;;8.30;77.10;;;;;;4962369;28;20433;-95
2021/03/16 07:44:07;;;;;;;6.93;1.90;;;8.30;77.90;;;;;;4969329;28;20022;-93
2021/03/16 07:47:02;;;;;;;8.27;1.50;;;8.30;77.30;;;;;;4978320;28;20042;-94
2021/03/16 07:49:30;;;;;;;6.50;1.75;;;8.40;77.20;;;;;;4994408;28;20035;-94
2021/03/16 07:51:57;;;;;;;13.07;2.28;;;8.40;77.10;;;;;;4964654;28;20297;-94
2021/03/16 07:54:30;;;;;;;6.13;1.77;;;8.30;77.00;;;;;;4988206;28;20027;-94
2021/03/16 07:56:58;;;;;;;7.75;1.33;;;8.30;77.10;;;;;;4970337;28;20054;-96
2021/03/16 07:59:35;;;;;;;6.25;1.83;;;8.30;77.10;;;;;;4979007;28;20080;-92
2021/03/16 08:02:01;;;;;;;3.30;1.10;;;8.30;77.00;;;;;;4976367;28;20054;-93
2021/03/16 08:04:38;;;;;;;10.48;2.00;;;8.40;77.10;;;;;;4978083;28;20022;-95
2021/03/16 08:07:05;;;;;;;7.15;1.98;;;8.40;77.00;;;;;;4969455;28;20035;-93
2021/03/16 08:09:42;;;;;;;137.27;86.05;;;8.30;76.80;;;;;;4965552;28;20059;-93
2021/03/16 08:12:23;;;;;;;26.67;14.65;;;8.30;77.50;;;;;;4958658;28;20558;-96
2021/03/16 08:14:49;;;;;;;10.48;5.10;;;8.20;76.80;;;;;;4971033;28;20133;-94
2021/03/16 08:17:32;;;;;;;8.57;3.20;;;8.30;76.90;;;;;;4964730;28;20106;-93
2021/03/16 08:19:59;;;;;;;5.32;2.00;;;8.30;76.70;;;;;;4970073;28;20041;-95
2021/03/16 08:22:26;;;;;;;9.75;2.03;;;8.30;76.60;;;;;;4960385;28;20042;-93
2021/03/16 08:24:58;;;;;;;6.30;1.92;;;8.40;76.50;;;;;;4969589;28;20041;-95
2021/03/16 08:27:27;;;;;;;5.43;1.60;;;8.50;76.30;;;;;;4974000;28;20082;-95
2021/03/16 08:29:54;;;;;;;7.63;2.10;;;8.50;76.10;;;;;;4975249;28;20029;-96
2021/03/16 08:32:21;;;;;;;10.10;2.67;;;8.50;76.10;;;;;;4968586;28;20086;-92
2021/03/16 08:34:48;;;;;;;6.72;1.65;;;8.40;75.80;;;;;;4976748;28;20510;-96
2021/03/16 08:37:23;;;;;;;9.93;2.17;;;8.30;75.80;;;;;;4972758;28;20014;-95
2021/03/16 08:39:51;;;;;;;10.98;2.15;;;8.40;75.70;;;;;;4986323;28;20042;-96
2021/03/16 08:42:21;;;;;;;6.75;1.92;;;8.40;75.50;;;;;;4975485;28;20027;-96
2021/03/16 08:44:48;;;;;;;7.72;1.60;;;8.50;75.50;;;;;;4981544;28;20027;-96
2021/03/16 08:47:17;;;;;;;5.93;1.50;;;8.60;75.30;;;;;;4967916;28;20109;-95
2021/03/16 08:49:45;;;;;;;7.55;1.70;;;8.70;75.20;;;;;;4979150;28;20041;-95
2021/03/16 08:52:24;;;;;;;6.72;1.92;;;8.70;75.00;;;;;;4978761;28;20027;-96
2021/03/16 08:54:50;;;;;;;5.68;1.60;;;8.70;74.80;;;;;;4959942;28;20389;-94
2021/03/16 08:57:29;;;;;;;7.45;1.95;;;8.70;74.90;;;;;;4959463;28;20022;-93
2021/03/16 08:59:57;;;;;;;8.70;2.25;;;8.80;74.80;;;;;;4954761;28;20035;-94
2021/03/16 09:02:28;;;;;;;6.40;2.13;;;8.80;74.40;;;;;;4980160;28;20465;-93
2021/03/16 09:04:55;;;;;;;7.70;1.88;;;8.80;74.20;;;;;;4972831;28;20039;-92
2021/03/16 09:07:25;;;;;;;8.68;2.00;;;8.80;73.90;;;;;;4974964;28;20063;-92
2021/03/16 09:10:10;;;;;;;5.18;1.77;;;8.90;73.70;;;;;;4959603;28;20415;-92
2021/03/16 09:12:41;;;;;;;7.60;1.70;;;8.90;73.70;;;;;;4972994;28;20031;-90
2021/03/16 09:15:27;;;;;;;7.72;2.03;;;9.00;73.60;;;;;;4948109;28;20028;-90
2021/03/16 09:18:13;;;;;;;6.32;1.70;;;9.10;73.40;;;;;;4964485;28;20043;-90
2021/03/16 09:20:41;;;;;;;6.25;1.65;;;9.10;73.30;;;;;;4967180;28;20122;-88
2021/03/16 09:23:12;;;;;;;5.65;1.42;;;9.20;73.10;;;;;;4974505;28;20034;-90
2021/03/16 09:25:43;;;;;;;6.35;1.50;;;9.20;72.50;;;;;;4944834;29;20516;-91
2021/03/16 09:28:11;;;;;;;7.07;2.00;;;9.20;72.30;;;;;;4957260;28;20019;-88
2021/03/16 09:30:40;;;;;;;5.47;1.75;;;9.20;72.10;;;;;;4975883;28;20023;-91
2021/03/16 09:33:07;;;;;;;6.15;1.50;;;9.20;72.20;;;;;;4945912;29;20082;-91
2021/03/16 09:35:33;;;;;;;3.92;1.40;;;9.20;72.30;;;;;;4966530;28;20026;-92
2021/03/16 09:38:03;;;;;;;4.43;1.48;;;9.20;72.00;;;;;;4949342;29;20023;-92
2021/03/16 09:40:35;;;;;;;6.82;1.63;;;9.20;71.90;;;;;;4977859;28;20457;-93
2021/03/16 09:43:01;;;;;;;3.85;1.40;;;9.20;72.00;;;;;;4958123;28;20106;-92
2021/03/16 09:45:29;;;;;;;7.15;1.70;;;9.20;71.90;;;;;;4974788;28;20026;-91
2021/03/16 09:47:56;;;;;;;5.57;1.40;;;9.20;71.80;;;;;;4972081;28;20031;-92
2021/03/16 09:50:32;;;;;;;6.95;1.52;;;9.20;71.80;;;;;;4966593;28;20019;-94
2021/03/16 09:53:00;;;;;;;4.78;1.48;;;9.20;71.60;;;;;;4961694;28;20037;-95
2021/03/16 09:55:27;;;;;;;5.50;1.33;;;9.20;71.70;;;;;;4958455;28;20015;-95
2021/03/16 09:57:53;;;;;;;6.90;1.50;;;9.20;71.70;;;;;;4959456;28;20026;-95
2021/03/16 10:00:20;;;;;;;5.55;1.42;;;9.20;71.70;;;;;;4981874;28;20022;-94
2021/03/16 10:02:46;;;;;;;4.25;1.23;;;9.20;72.30;;;;;;4962418;28;20030;-95
2021/03/16 10:05:14;;;;;;;4.38;1.15;;;9.20;71.40;;;;;;4948282;28;20057;-95
2021/03/16 10:07:40;;;;;;;6.10;1.50;;;9.20;71.30;;;;;;4963968;28;20015;-95
2021/03/16 10:10:17;;;;;;;6.63;1.30;;;9.20;71.10;;;;;;4975141;28;20029;-95
2021/03/16 10:13:10;;;;;;;3.95;1.10;;;9.30;71.10;;;;;;4961485;28;20425;-96
2021/03/16 10:15:42;;;;;;;4.63;1.50;;;9.40;70.90;;;;;;4937435;29;20562;-95
2021/03/16 10:18:10;;;;;;;3.58;1.33;;;9.50;70.50;;;;;;4956207;28;20508;-95
2021/03/16 10:20:39;;;;;;;6.70;1.40;;;9.60;70.60;;;;;;4967873;28;20030;-96
2021/03/16 10:23:10;;;;;;;5.07;1.40;;;9.60;70.30;;;;;;4975899;28;20023;-96
2021/03/16 10:25:36;;;;;;;6.13;1.30;;;9.60;70.30;;;;;;4971454;28;20094;-95
2021/03/16 10:28:07;;;;;;;7.80;1.35;;;9.70;70.20;;;;;;4981560;28;20042;-95
2021/03/16 10:30:43;;;;;;;4.82;1.63;;;9.80;69.90;;;;;;4985006;28;20031;-95
2021/03/16 10:33:10;;;;;;;8.18;1.73;;;9.80;69.40;;;;;;4975199;28;20739;-94
2021/03/16 10:35:38;;;;;;;3.92;1.23;;;9.80;69.10;;;;;;4958542;28;20026;-94
2021/03/16 10:38:05;;;;;;;4.13;1.33;;;9.90;69.10;;;;;;4947013;28;20465;-94
2021/03/16 10:40:32;;;;;;;6.15;1.50;;;9.90;68.90;;;;;;4992577;28;20089;-95
2021/03/16 10:42:57;;;;;;;6.13;1.73;;;9.90;68.70;;;;;;4975516;28;20042;-95
2021/03/16 10:45:24;;;;;;;7.88;2.85;;;9.90;68.50;;;;;;4982398;28;20486;-95
2021/03/16 10:47:49;;;;;;;7.63;2.42;;;10.00;68.40;;;;;;4951684;28;20023;-96
2021/03/16 10:50:15;;;;;;;3.08;1.58;;;10.10;68.60;;;;;;4975750;28;20409;-95
2021/03/16 10:52:41;;;;;;;6.20;1.60;;;10.10;68.50;;;;;;4959005;28;20027;-95
2021/03/16 10:55:07;;;;;;;4.68;1.30;;;10.10;67.80;;;;;;4957797;28;20050;-95
2021/03/16 10:57:33;;;;;;;4.95;1.45;;;10.20;67.50;;;;;;4977229;28;20030;-95
2021/03/16 11:00:06;;;;;;;3.25;1.30;;;10.20;66.90;;;;;;4953705;28;20055;-95
2021/03/16 11:02:38;;;;;;;5.40;1.25;;;10.10;66.50;;;;;;4958019;28;20121;-96
2021/03/16 11:05:04;;;;;;;3.87;1.07;;;10.20;67.20;;;;;;4977325;28;20034;-95
2021/03/16 11:07:30;;;;;;;4.05;1.25;;;10.20;66.50;;;;;;4955869;28;20294;-95
2021/03/16 11:09:55;;;;;;;4.90;1.20;;;10.30;66.00;;;;;;4975953;28;20019;-95
2021/03/16 11:12:21;;;;;;;4.55;1.35;;;10.40;65.60;;;;;;4963978;28;20038;-95
2021/03/16 11:14:47;;;;;;;4.70;1.30;;;10.50;65.40;;;;;;4972789;28;20494;-95
2021/03/16 11:17:12;;;;;;;3.80;1.15;;;10.50;64.90;;;;;;4958561;28;20047;-95
2021/03/16 11:19:38;;;;;;;5.25;1.33;;;10.50;65.20;;;;;;4948003;28;20228;-94
2021/03/16 11:22:04;;;;;;;3.03;0.90;;;10.50;64.70;;;;;;4976119;28;20378;-96
2021/03/16 11:24:30;;;;;;;2.63;1.05;;;10.50;64.80;;;;;;4965636;28;20092;-94
2021/03/16 11:26:55;;;;;;;4.80;1.13;;;10.50;64.00;;;;;;4970522;28;20478;-94
2021/03/16 11:29:21;;;;;;;4.63;1.17;;;10.50;64.40;;;;;;4965804;28;20052;-94
2021/03/16 11:31:46;;;;;;;4.57;1.27;;;10.50;64.40;;;;;;4989123;28;20126;-95
2021/03/16 11:34:12;;;;;;;4.05;1.40;;;10.50;64.30;;;;;;4959696;28;20578;-93
2021/03/16 11:36:38;;;;;;;4.95;1.33;;;10.50;63.90;;;;;;4938982;28;20544;-94
2021/03/16 11:39:04;;;;;;;6.93;1.48;;;10.50;64.10;;;;;;4961973;28;20030;-93
2021/03/16 11:41:29;;;;;;;7.70;1.60;;;10.50;63.90;;;;;;4961115;28;20130;-94
2021/03/16 11:43:55;;;;;;;5.45;1.30;;;10.50;63.60;;;;;;4973755;28;20077;-93
2021/03/16 11:46:20;;;;;;;4.28;1.10;;;10.50;63.90;;;;;;4957764;28;20089;-94
2021/03/16 11:48:46;;;;;;;4.43;1.30;;;10.60;64.10;;;;;;4980033;28;20531;-94
2021/03/16 11:51:12;;;;;;;6.20;1.40;;;10.80;63.70;;;;;;4974036;28;20054;-94
2021/03/16 11:53:37;;;;;;;6.05;1.80;;;10.80;63.20;;;;;;4973777;28;20026;-94
2021/03/16 11:56:03;;;;;;;4.18;1.33;;;10.80;63.00;;;;;;4962618;28;20124;-95
2021/03/16 11:58:29;;;;;;;3.78;1.00;;;10.70;63.00;;;;;;4971556;28;20029;-94
2021/03/16 12:00:55;;;;;;;5.00;0.93;;;10.70;63.60;;;;;;4972479;28;20038;-94
2021/03/16 12:03:21;;;;;;;5.60;1.42;;;10.70;63.70;;;;;;4971759;28;20368;-92
2021/03/16 12:05:46;;;;;;;7.63;1.45;;;10.60;63.20;;;;;;4992741;28;20118;-92
2021/03/16 12:08:13;;;;;;;5.88;1.60;;;10.50;62.90;;;;;;4989671;28;20079;-95
2021/03/16 12:10:39;;;;;;;2.67;1.10;;;10.50;63.00;;;;;;4960451;28;20031;-96
2021/03/16 12:13:04;;;;;;;4.68;1.23;;;10.40;63.10;;;;;;4977229;28;20022;-96
2021/03/16 12:15:30;;;;;;;4.35;1.20;;;10.40;63.30;;;;;;4962180;28;20027;-96
2021/03/16 12:18:03;;;;;;;3.75;1.08;;;10.40;63.30;;;;;;4963150;28;20034;-96
2021/03/16 12:20:30;;;;;;;3.83;1.10;;;10.50;63.60;;;;;;4973477;28;20091;-96
2021/03/16 12:22:56;;;;;;;6.38;1.20;;;10.50;63.40;;;;;;4960595;29;20038;-96
2021/03/16 12:25:22;;;;;;;5.32;1.40;;;10.60;63.50;;;;;;4955141;29;20024;-95
2021/03/16 12:28:04;;;;;;;4.25;1.45;;;10.50;62.80;;;;;;4973957;28;20030;-96
2021/03/16 13:01:21;;;;;;;4.47;1.02;;;11.00;60.40;;;;;;5471283;23;20066;-96
2021/03/16 13:03:46;;;;;;;4.00;1.10;;;11.00;60.20;;;;;;4988237;28;20102;-93
2021/03/16 13:06:12;;;;;;;3.92;1.58;;;11.00;60.30;;;;;;5034090;23;20069;-95
2021/03/16 13:08:37;;;;;;;3.33;1.10;;;11.00;60.40;;;;;;4978633;28;20046;-95
2021/03/16 13:11:22;;;;;;;4.25;1.10;;;11.00;60.40;;;;;;4987084;28;20185;-96
2021/03/16 13:19:01;;;;;;;4.28;1.70;;;10.60;62.10;;;;;;5546347;23;20039;-95
2021/03/16 13:24:33;;;;;;;3.90;1.23;;;10.40;63.30;;;;;;5330399;23;20039;-96
2021/03/16 13:27:09;;;;;;;3.72;1.20;;;10.50;63.70;;;;;;5043782;23;20047;-96
2021/03/16 13:29:35;;;;;;;3.97;1.30;;;10.50;63.80;;;;;;4992153;28;20513;-96
2021/03/16 13:32:02;;;;;;;3.45;1.52;;;10.50;63.90;;;;;;5074137;23;20235;-94
2021/03/16 13:34:27;;;;;;;3.90;1.50;;;10.50;64.10;;;;;;4946854;29;20042;-94
2021/03/16 13:36:53;;;;;;;4.38;1.40;;;10.50;64.10;;;;;;4956451;29;20019;-95
2021/03/16 13:39:18;;;;;;;3.88;1.50;;;10.30;64.30;;;;;;4961238;28;20027;-96
2021/03/16 13:41:49;;;;;;;4.50;1.33;;;10.20;64.70;;;;;;5007814;23;20050;-96
2021/03/16 13:44:15;;;;;;;6.50;1.60;;;10.20;65.30;;;;;;4983601;28;20033;-94
2021/03/16 13:46:40;;;;;;;3.05;1.30;;;10.10;65.80;;;;;;4965378;28;20134;-95
2021/03/16 13:49:06;;;;;;;1.65;1.17;;;10.00;66.30;;;;;;4973552;28;20034;-95
2021/03/16 13:51:37;;;;;;;2.90;1.20;;;10.00;66.70;;;;;;4988210;28;20448;-93
2021/03/16 13:54:06;;;;;;;4.25;1.50;;;9.90;67.30;;;;;;4971832;28;20019;-95
2021/03/16 13:56:32;;;;;;;3.70;1.10;;;9.80;67.90;;;;;;4958806;28;20014;-96
2021/03/16 13:58:57;;;;;;;3.28;1.20;;;9.70;68.40;;;;;;4994101;28;20027;-96
2021/03/16 14:01:31;;;;;;;6.30;1.30;;;9.60;69.00;;;;;;4992964;28;20157;-93
2021/03/16 14:03:57;;;;;;;3.22;1.30;;;9.50;69.40;;;;;;4986642;28;20026;-91
2021/03/16 14:06:23;;;;;;;3.60;1.30;;;9.40;69.80;;;;;;4993138;28;20038;-94
2021/03/16 14:08:49;;;;;;;2.53;1.00;;;9.30;70.20;;;;;;4993117;28;20037;-95
2021/03/16 14:11:14;;;;;;;2.22;1.15;;;9.20;71.20;;;;;;4998047;28;20022;-96
2021/03/16 14:13:40;;;;;;;2.38;1.25;;;9.20;70.90;;;;;;4970029;28;20018;-94
2021/03/16 14:16:05;;;;;;;2.80;1.20;;;9.10;71.20;;;;;;4976934;28;20094;-96
2021/03/16 14:18:31;;;;;;;2.83;1.30;;;9.10;72.30;;;;;;5003452;28;20018;-96
2021/03/16 14:20:56;;;;;;;3.55;1.63;;;9.10;71.90;;;;;;5091887;23;20567;-96
2021/03/16 14:23:22;;;;;;;4.53;1.42;;;9.00;72.20;;;;;;4944144;29;20086;-96
2021/03/16 14:25:47;;;;;;;3.00;1.60;;;8.90;72.40;;;;;;4957345;28;20036;-95
2021/03/16 14:28:13;;;;;;;3.65;1.30;;;8.90;72.60;;;;;;4959353;28;20023;-95
2021/03/16 14:30:39;;;;;;;2.45;1.25;;;8.90;72.90;;;;;;4961767;28;20118;-96
2021/03/16 14:33:04;;;;;;;2.85;1.25;;;8.90;73.10;;;;;;4966526;29;20011;-96
2021/03/16 14:35:30;;;;;;;2.10;1.23;;;8.90;73.10;;;;;;4974127;28;20031;-95